sensor_id;sensor_type;location;lat;lon;timestamp;pressure;altitude;pressure_sealevel;temperature;humidity
28606;BME280;46498;49.968;7.754;2023-08-24T00:02:35;-18881.00;;;18.94;nan
28606;BME280;46498;49.968;7.754;2023-08-24T00:07:36;-18880.00;;;18.92;nan
28606;BME280;46498;49.968;7.754;2023-08-24T00:12:37;-18882.00;;;18.98;nan
28606;BME280;46498;49.968;7.754;2023-08-24T00:17:38;-18882.00;;;18.98;nan
28606;BME280;46498;49.968;7.754;2023-08-24T00:22:39;-18880.00;;;18.90;nan
28606;BME280;46498;49.968;7.754;2023-08-24T00:27:40;-18881.00;;;18.94;nan
28606;BME280;46498;49.968;7.754;2023-08-24T00:32:42;-18870.00;;;18.61;nan
28606;BME280;46498;49.968;7.754;2023-08-24T00:37:43;-18860.00;;;18.27;nan
28606;BME280;46498;49.968;7.754;2023-08-24T00:42:44;-18861.00;;;18.31;nan
28606;BME280;46498;49.968;7.754;2023-08-24T00:47:47;-18860.00;;;18.28;nan
28606;BME280;46498;49.968;7.754;2023-08-24T00:52:51;-18866.00;;;18.46;nan
28606;BME280;46498;49.968;7.754;2023-08-24T00:57:53;-18870.00;;;18.59;nan
28606;BME280;46498;49.968;7.754;2023-08-24T01:02:54;-18867.00;;;18.52;nan
28606;BME280;46498;49.968;7.754;2023-08-24T01:07:55;-18869.00;;;18.57;nan
28606;BME280;46498;49.968;7.754;2023-08-24T01:13:04;-18871.00;;;18.64;nan
28606;BME280;46498;49.968;7.754;2023-08-24T01:18:13;-18875.00;;;18.76;nan
28606;BME280;46498;49.968;7.754;2023-08-24T01:24:39;-18874.00;;;18.74;nan
28606;BME280;46498;49.968;7.754;2023-08-24T01:29:41;-18877.00;;;18.82;nan
28606;BME280;46498;49.968;7.754;2023-08-24T01:34:42;-18869.00;;;18.56;nan
28606;BME280;46498;49.968;7.754;2023-08-24T01:39:54;-18864.00;;;18.41;nan
28606;BME280;46498;49.968;7.754;2023-08-24T01:45:05;-18864.00;;;18.42;nan
28606;BME280;46498;49.968;7.754;2023-08-24T01:50:09;-18872.00;;;18.67;nan
28606;BME280;46498;49.968;7.754;2023-08-24T01:55:11;-18871.00;;;18.64;nan
28606;BME280;46498;49.968;7.754;2023-08-24T02:00:12;-18875.00;;;18.76;nan
28606;BME280;46498;49.968;7.754;2023-08-24T02:05:19;-18874.00;;;18.74;nan
28606;BME280;46498;49.968;7.754;2023-08-24T02:10:23;-18870.00;;;18.59;nan
28606;BME280;46498;49.968;7.754;2023-08-24T02:15:24;-18873.00;;;18.70;nan
28606;BME280;46498;49.968;7.754;2023-08-24T02:20:25;-18872.00;;;18.67;nan
28606;BME280;46498;49.968;7.754;2023-08-24T02:25:26;-18873.00;;;18.69;nan
28606;BME280;46498;49.968;7.754;2023-08-24T02:30:27;-18870.00;;;18.60;nan
28606;BME280;46498;49.968;7.754;2023-08-24T02:35:28;-18867.00;;;18.50;nan
28606;BME280;46498;49.968;7.754;2023-08-24T02:40:28;-18865.00;;;18.44;nan
28606;BME280;46498;49.968;7.754;2023-08-24T02:45:29;-18869.00;;;18.57;nan
28606;BME280;46498;49.968;7.754;2023-08-24T02:50:30;-18870.00;;;18.61;nan
28606;BME280;46498;49.968;7.754;2023-08-24T02:55:32;-18874.00;;;18.72;nan
28606;BME280;46498;49.968;7.754;2023-08-24T03:00:33;-18875.00;;;18.77;nan
28606;BME280;46498;49.968;7.754;2023-08-24T03:05:34;-18875.00;;;18.75;nan
28606;BME280;46498;49.968;7.754;2023-08-24T03:10:35;-18870.00;;;18.60;nan
28606;BME280;46498;49.968;7.754;2023-08-24T03:15:36;-18874.00;;;18.72;nan
28606;BME280;46498;49.968;7.754;2023-08-24T03:20:40;-18878.00;;;18.85;nan
28606;BME280;46498;49.968;7.754;2023-08-24T03:25:41;-18869.00;;;18.55;nan
28606;BME280;46498;49.968;7.754;2023-08-24T03:30:48;-18863.00;;;18.39;nan
28606;BME280;46498;49.968;7.754;2023-08-24T03:35:49;-18861.00;;;18.33;nan
28606;BME280;46498;49.968;7.754;2023-08-24T03:40:50;-18864.00;;;18.40;nan
28606;BME280;46498;49.968;7.754;2023-08-24T03:45:52;-18872.00;;;18.68;nan
28606;BME280;46498;49.968;7.754;2023-08-24T03:50:54;-18875.00;;;18.75;nan
28606;BME280;46498;49.968;7.754;2023-08-24T03:55:56;-18875.00;;;18.77;nan
28606;BME280;46498;49.968;7.754;2023-08-24T04:00:56;-18879.00;;;18.89;nan
28606;BME280;46498;49.968;7.754;2023-08-24T04:05:58;-18882.00;;;18.99;nan
28606;BME280;46498;49.968;7.754;2023-08-24T04:10:59;-18881.00;;;18.96;nan
28606;BME280;46498;49.968;7.754;2023-08-24T04:16:00;-18876.00;;;18.80;nan
28606;BME280;46498;49.968;7.754;2023-08-24T04:21:01;-18873.00;;;18.69;nan
28606;BME280;46498;49.968;7.754;2023-08-24T04:26:02;-18875.00;;;18.77;nan
28606;BME280;46498;49.968;7.754;2023-08-24T04:31:05;-18873.00;;;18.71;nan
28606;BME280;46498;49.968;7.754;2023-08-24T04:36:07;-18874.00;;;18.71;nan
28606;BME280;46498;49.968;7.754;2023-08-24T04:41:08;-18877.00;;;18.82;nan
28606;BME280;46498;49.968;7.754;2023-08-24T04:46:09;-18883.00;;;19.01;nan
28606;BME280;46498;49.968;7.754;2023-08-24T04:51:10;-18886.00;;;19.11;nan
28606;BME280;46498;49.968;7.754;2023-08-24T04:56:11;-18888.00;;;19.17;nan
28606;BME280;46498;49.968;7.754;2023-08-24T05:01:12;-18893.00;;;19.32;nan
28606;BME280;46498;49.968;7.754;2023-08-24T05:06:13;-18888.00;;;19.17;nan
28606;BME280;46498;49.968;7.754;2023-08-24T05:11:17;-18889.00;;;19.18;nan
28606;BME280;46498;49.968;7.754;2023-08-24T05:16:18;-18888.00;;;19.16;nan
28606;BME280;46498;49.968;7.754;2023-08-24T05:21:19;-18889.00;;;19.19;nan
28606;BME280;46498;49.968;7.754;2023-08-24T05:26:20;-18886.00;;;19.10;nan
28606;BME280;46498;49.968;7.754;2023-08-24T05:31:23;-18884.00;;;19.04;nan
28606;BME280;46498;49.968;7.754;2023-08-24T05:36:24;-18878.00;;;18.84;nan
28606;BME280;46498;49.968;7.754;2023-08-24T05:41:25;-18880.00;;;18.91;nan
28606;BME280;46498;49.968;7.754;2023-08-24T05:46:25;-18878.00;;;18.84;nan
28606;BME280;46498;49.968;7.754;2023-08-24T05:51:26;-18880.00;;;18.91;nan
28606;BME280;46498;49.968;7.754;2023-08-24T05:56:27;-18880.00;;;18.90;nan
28606;BME280;46498;49.968;7.754;2023-08-24T06:01:28;-18874.00;;;18.71;nan
28606;BME280;46498;49.968;7.754;2023-08-24T06:06:29;-18862.00;;;18.33;nan
28606;BME280;46498;49.968;7.754;2023-08-24T06:11:30;-18874.00;;;18.72;nan
28606;BME280;46498;49.968;7.754;2023-08-24T06:16:31;-18878.00;;;18.85;nan
28606;BME280;46498;49.968;7.754;2023-08-24T06:21:31;-18886.00;;;19.10;nan
28606;BME280;46498;49.968;7.754;2023-08-24T06:26:32;-18874.00;;;18.74;nan
28606;BME280;46498;49.968;7.754;2023-08-24T06:31:33;-18878.00;;;18.85;nan
28606;BME280;46498;49.968;7.754;2023-08-24T06:36:34;-18887.00;;;19.14;nan
28606;BME280;46498;49.968;7.754;2023-08-24T06:41:35;-18886.00;;;19.09;nan
28606;BME280;46498;49.968;7.754;2023-08-24T06:46:37;-18883.00;;;19.01;nan
28606;BME280;46498;49.968;7.754;2023-08-24T06:51:38;-18882.00;;;18.97;nan
28606;BME280;46498;49.968;7.754;2023-08-24T06:56:39;-18884.00;;;19.03;nan
28606;BME280;46498;49.968;7.754;2023-08-24T07:01:39;-18883.00;;;19.02;nan
28606;BME280;46498;49.968;7.754;2023-08-24T07:06:41;-18877.00;;;18.83;nan
28606;BME280;46498;49.968;7.754;2023-08-24T07:11:44;-18870.00;;;18.58;nan
28606;BME280;46498;49.968;7.754;2023-08-24T07:16:44;-18868.00;;;18.53;nan
28606;BME280;46498;49.968;7.754;2023-08-24T07:21:45;-18872.00;;;18.68;nan
28606;BME280;46498;49.968;7.754;2023-08-24T07:26:46;-18851.00;;;17.99;nan
28606;BME280;46498;49.968;7.754;2023-08-24T07:31:47;-18849.00;;;17.94;nan
28606;BME280;46498;49.968;7.754;2023-08-24T07:36:49;-18850.00;;;17.97;nan
28606;BME280;46498;49.968;7.754;2023-08-24T07:41:50;-18850.00;;;17.98;nan
28606;BME280;46498;49.968;7.754;2023-08-24T07:46:51;-18858.00;;;18.21;nan
28606;BME280;46498;49.968;7.754;2023-08-24T07:51:52;-18866.00;;;18.49;nan
28606;BME280;46498;49.968;7.754;2023-08-24T07:56:53;-18873.00;;;18.71;nan
28606;BME280;46498;49.968;7.754;2023-08-24T08:01:54;-18883.00;;;19.00;nan
28606;BME280;46498;49.968;7.754;2023-08-24T08:06:55;-18889.00;;;19.19;nan
28606;BME280;46498;49.968;7.754;2023-08-24T08:11:56;-18890.00;;;19.22;nan
28606;BME280;46498;49.968;7.754;2023-08-24T08:16:57;-18893.00;;;19.33;nan
28606;BME280;46498;49.968;7.754;2023-08-24T08:21:58;-18890.00;;;19.23;nan
28606;BME280;46498;49.968;7.754;2023-08-24T08:26:58;-18895.00;;;19.37;nan
28606;BME280;46498;49.968;7.754;2023-08-24T08:32:00;-18901.00;;;19.59;nan
28606;BME280;46498;49.968;7.754;2023-08-24T08:37:01;-18913.00;;;19.96;nan
28606;BME280;46498;49.968;7.754;2023-08-24T08:42:03;-18920.00;;;20.16;nan
28606;BME280;46498;49.968;7.754;2023-08-24T08:47:04;-18933.00;;;20.58;nan
28606;BME280;46498;49.968;7.754;2023-08-24T08:52:07;-18943.00;;;20.90;nan
28606;BME280;46498;49.968;7.754;2023-08-24T08:57:09;-18945.00;;;20.96;nan
28606;BME280;46498;49.968;7.754;2023-08-24T09:02:13;-18957.00;;;21.34;nan
28606;BME280;46498;49.968;7.754;2023-08-24T09:07:15;-18968.00;;;21.69;nan
28606;BME280;46498;49.968;7.754;2023-08-24T09:12:16;-18975.00;;;21.90;nan
28606;BME280;46498;49.968;7.754;2023-08-24T09:17:21;-18951.00;;;21.15;nan
28606;BME280;46498;49.968;7.754;2023-08-24T09:22:22;-18952.00;;;21.19;nan
28606;BME280;46498;49.968;7.754;2023-08-24T09:27:23;-18969.00;;;21.72;nan
28606;BME280;46498;49.968;7.754;2023-08-24T09:32:27;-18971.00;;;21.79;nan
28606;BME280;46498;49.968;7.754;2023-08-24T09:37:33;-18976.00;;;21.95;nan
28606;BME280;46498;49.968;7.754;2023-08-24T09:42:38;-18981.00;;;22.11;nan
28606;BME280;46498;49.968;7.754;2023-08-24T09:47:51;-18999.00;;;22.67;nan
28606;BME280;46498;49.968;7.754;2023-08-24T09:52:57;-19013.00;;;23.10;nan
28606;BME280;46498;49.968;7.754;2023-08-24T09:58:03;-19019.00;;;23.31;nan
28606;BME280;46498;49.968;7.754;2023-08-24T10:03:04;-19026.00;;;23.52;nan
28606;BME280;46498;49.968;7.754;2023-08-24T10:08:06;-19028.00;;;23.57;nan
28606;BME280;46498;49.968;7.754;2023-08-24T10:13:16;-19029.00;;;23.61;nan
28606;BME280;46498;49.968;7.754;2023-08-24T10:18:19;-19027.00;;;23.55;nan
28606;BME280;46498;49.968;7.754;2023-08-24T10:23:21;-19015.00;;;23.18;nan
28606;BME280;46498;49.968;7.754;2023-08-24T10:28:24;-19012.00;;;23.06;nan
28606;BME280;46498;49.968;7.754;2023-08-24T10:33:27;-19019.00;;;23.30;nan
28606;BME280;46498;49.968;7.754;2023-08-24T10:38:34;-19014.00;;;23.15;nan
28606;BME280;46498;49.968;7.754;2023-08-24T10:43:49;-19023.00;;;23.41;nan
28606;BME280;46498;49.968;7.754;2023-08-24T10:48:59;-19032.00;;;23.69;nan
28606;BME280;46498;49.968;7.754;2023-08-24T10:54:02;-19037.00;;;23.87;nan
28606;BME280;46498;49.968;7.754;2023-08-24T10:59:16;-19042.00;;;24.02;nan
28606;BME280;46498;49.968;7.754;2023-08-24T11:04:17;-19040.00;;;23.97;nan
28606;BME280;46498;49.968;7.754;2023-08-24T11:09:19;-19049.00;;;24.25;nan
28606;BME280;46498;49.968;7.754;2023-08-24T11:14:20;-19047.00;;;24.18;nan
28606;BME280;46498;49.968;7.754;2023-08-24T11:19:23;-19038.00;;;23.88;nan
28606;BME280;46498;49.968;7.754;2023-08-24T11:24:25;-19026.00;;;23.53;nan
28606;BME280;46498;49.968;7.754;2023-08-24T11:29:26;-19030.00;;;23.64;nan
28606;BME280;46498;49.968;7.754;2023-08-24T11:34:26;-19036.00;;;23.84;nan
28606;BME280;46498;49.968;7.754;2023-08-24T11:39:27;-19041.00;;;23.99;nan
28606;BME280;46498;49.968;7.754;2023-08-24T11:44:47;-19035.00;;;23.81;nan
28606;BME280;46498;49.968;7.754;2023-08-24T11:49:49;-19039.00;;;23.92;nan
28606;BME280;46498;49.968;7.754;2023-08-24T11:54:51;-19032.00;;;23.70;nan
28606;BME280;46498;49.968;7.754;2023-08-24T11:59:52;-19030.00;;;23.63;nan
28606;BME280;46498;49.968;7.754;2023-08-24T12:04:53;-19027.00;;;23.56;nan
28606;BME280;46498;49.968;7.754;2023-08-24T12:09:54;-19020.00;;;23.32;nan
28606;BME280;46498;49.968;7.754;2023-08-24T12:14:56;-19020.00;;;23.31;nan
28606;BME280;46498;49.968;7.754;2023-08-24T12:20:00;-19013.00;;;23.12;nan
28606;BME280;46498;49.968;7.754;2023-08-24T12:25:02;-19014.00;;;23.14;nan
28606;BME280;46498;49.968;7.754;2023-08-24T12:30:03;-19020.00;;;23.33;nan
28606;BME280;46498;49.968;7.754;2023-08-24T12:35:08;-19024.00;;;23.46;nan
28606;BME280;46498;49.968;7.754;2023-08-24T12:40:10;-19028.00;;;23.59;nan
28606;BME280;46498;49.968;7.754;2023-08-24T12:45:11;-19030.00;;;23.64;nan
28606;BME280;46498;49.968;7.754;2023-08-24T12:50:12;-19033.00;;;23.72;nan
28606;BME280;46498;49.968;7.754;2023-08-24T12:55:13;-19035.00;;;23.80;nan
28606;BME280;46498;49.968;7.754;2023-08-24T13:00:14;-19035.00;;;23.80;nan
28606;BME280;46498;49.968;7.754;2023-08-24T13:05:15;-19033.00;;;23.74;nan
28606;BME280;46498;49.968;7.754;2023-08-24T13:10:16;-19030.00;;;23.64;nan
28606;BME280;46498;49.968;7.754;2023-08-24T13:15:17;-19028.00;;;23.59;nan
28606;BME280;46498;49.968;7.754;2023-08-24T13:20:19;-19027.00;;;23.53;nan
28606;BME280;46498;49.968;7.754;2023-08-24T13:25:20;-19027.00;;;23.53;nan
28606;BME280;46498;49.968;7.754;2023-08-24T13:30:21;-19023.00;;;23.41;nan
28606;BME280;46498;49.968;7.754;2023-08-24T13:35:21;-19020.00;;;23.31;nan
28606;BME280;46498;49.968;7.754;2023-08-24T13:40:23;-19017.00;;;23.24;nan
28606;BME280;46498;49.968;7.754;2023-08-24T13:45:24;-19008.00;;;22.95;nan
28606;BME280;46498;49.968;7.754;2023-08-24T13:50:25;-19009.00;;;22.98;nan
28606;BME280;46498;49.968;7.754;2023-08-24T13:55:26;-19009.00;;;22.99;nan
28606;BME280;46498;49.968;7.754;2023-08-24T14:00:26;-19012.00;;;23.08;nan
28606;BME280;46498;49.968;7.754;2023-08-24T14:05:28;-19010.00;;;23.00;nan
28606;BME280;46498;49.968;7.754;2023-08-24T14:10:29;-19009.00;;;22.98;nan
28606;BME280;46498;49.968;7.754;2023-08-24T14:15:30;-19008.00;;;22.96;nan
28606;BME280;46498;49.968;7.754;2023-08-24T14:20:31;-19003.00;;;22.80;nan
28606;BME280;46498;49.968;7.754;2023-08-24T14:25:33;-19004.00;;;22.82;nan
28606;BME280;46498;49.968;7.754;2023-08-24T14:30:33;-19003.00;;;22.77;nan
28606;BME280;46498;49.968;7.754;2023-08-24T14:35:34;-19001.00;;;22.72;nan
28606;BME280;46498;49.968;7.754;2023-08-24T14:40:35;-19003.00;;;22.79;nan
28606;BME280;46498;49.968;7.754;2023-08-24T14:45:37;-19006.00;;;22.89;nan
28606;BME280;46498;49.968;7.754;2023-08-24T14:50:38;-19016.00;;;23.20;nan
28606;BME280;46498;49.968;7.754;2023-08-24T14:55:39;-19016.00;;;23.21;nan
28606;BME280;46498;49.968;7.754;2023-08-24T15:00:40;-19010.00;;;23.01;nan
28606;BME280;46498;49.968;7.754;2023-08-24T15:05:51;-19000.00;;;22.70;nan
28606;BME280;46498;49.968;7.754;2023-08-24T15:10:58;-19000.00;;;22.68;nan
28606;BME280;46498;49.968;7.754;2023-08-24T15:15:59;-19003.00;;;22.80;nan
28606;BME280;46498;49.968;7.754;2023-08-24T15:21:00;-18998.00;;;22.62;nan
28606;BME280;46498;49.968;7.754;2023-08-24T15:26:01;-18991.00;;;22.42;nan
28606;BME280;46498;49.968;7.754;2023-08-24T15:31:02;-18989.00;;;22.34;nan
28606;BME280;46498;49.968;7.754;2023-08-24T15:36:03;-18981.00;;;22.08;nan
28606;BME280;46498;49.968;7.754;2023-08-24T15:41:04;-18979.00;;;22.04;nan
28606;BME280;46498;49.968;7.754;2023-08-24T15:46:06;-18974.00;;;21.88;nan
28606;BME280;46498;49.968;7.754;2023-08-24T15:51:07;-18960.00;;;21.44;nan
28606;BME280;46498;49.968;7.754;2023-08-24T15:56:08;-18958.00;;;21.36;nan
28606;BME280;46498;49.968;7.754;2023-08-24T16:01:09;-18955.00;;;21.29;nan
28606;BME280;46498;49.968;7.754;2023-08-24T16:06:11;-18957.00;;;21.35;nan
28606;BME280;46498;49.968;7.754;2023-08-24T16:11:12;-18955.00;;;21.29;nan
28606;BME280;46498;49.968;7.754;2023-08-24T16:16:13;-18955.00;;;21.28;nan
28606;BME280;46498;49.968;7.754;2023-08-24T16:21:14;-18957.00;;;21.32;nan
28606;BME280;46498;49.968;7.754;2023-08-24T16:26:15;-18959.00;;;21.40;nan
28606;BME280;46498;49.968;7.754;2023-08-24T16:31:16;-18959.00;;;21.42;nan
28606;BME280;46498;49.968;7.754;2023-08-24T16:36:17;-18958.00;;;21.39;nan
28606;BME280;46498;49.968;7.754;2023-08-24T16:41:18;-18956.00;;;21.30;nan
28606;BME280;46498;49.968;7.754;2023-08-24T16:46:19;-18948.00;;;21.04;nan
28606;BME280;46498;49.968;7.754;2023-08-24T16:51:20;-18942.00;;;20.88;nan
28606;BME280;46498;49.968;7.754;2023-08-24T16:56:21;-18938.00;;;20.73;nan
28606;BME280;46498;49.968;7.754;2023-08-24T17:01:21;-18933.00;;;20.59;nan
28606;BME280;46498;49.968;7.754;2023-08-24T17:06:23;-18927.00;;;20.39;nan
28606;BME280;46498;49.968;7.754;2023-08-24T17:11:24;-18916.00;;;20.04;nan
28606;BME280;46498;49.968;7.754;2023-08-24T17:16:24;-18908.00;;;19.80;nan
28606;BME280;46498;49.968;7.754;2023-08-24T17:21:25;-18905.00;;;19.71;nan
28606;BME280;46498;49.968;7.754;2023-08-24T17:26:26;-18898.00;;;19.49;nan
28606;BME280;46498;49.968;7.754;2023-08-24T17:31:27;-18897.00;;;19.44;nan
28606;BME280;46498;49.968;7.754;2023-08-24T17:36:28;-18894.00;;;19.35;nan
28606;BME280;46498;49.968;7.754;2023-08-24T17:41:30;-18891.00;;;19.26;nan
28606;BME280;46498;49.968;7.754;2023-08-24T17:46:32;-18893.00;;;19.33;nan
28606;BME280;46498;49.968;7.754;2023-08-24T17:51:33;-18891.00;;;19.25;nan
28606;BME280;46498;49.968;7.754;2023-08-24T17:56:34;-18885.00;;;19.08;nan
28606;BME280;46498;49.968;7.754;2023-08-24T18:01:35;-18889.00;;;19.19;nan
28606;BME280;46498;49.968;7.754;2023-08-24T18:06:36;-18879.00;;;18.88;nan
28606;BME280;46498;49.968;7.754;2023-08-24T18:11:37;-18877.00;;;18.81;nan
28606;BME280;46498;49.968;7.754;2023-08-24T18:16:38;-18875.00;;;18.75;nan
28606;BME280;46498;49.968;7.754;2023-08-24T18:21:39;-18873.00;;;18.71;nan
28606;BME280;46498;49.968;7.754;2023-08-24T18:26:40;-18879.00;;;18.88;nan
28606;BME280;46498;49.968;7.754;2023-08-24T18:31:41;-18881.00;;;18.93;nan
28606;BME280;46498;49.968;7.754;2023-08-24T18:36:42;-18877.00;;;18.82;nan
28606;BME280;46498;49.968;7.754;2023-08-24T18:41:43;-18875.00;;;18.74;nan
28606;BME280;46498;49.968;7.754;2023-08-24T18:46:44;-18874.00;;;18.74;nan
28606;BME280;46498;49.968;7.754;2023-08-24T18:51:47;-18870.00;;;18.58;nan
28606;BME280;46498;49.968;7.754;2023-08-24T18:56:48;-18867.00;;;18.51;nan
28606;BME280;46498;49.968;7.754;2023-08-24T19:01:49;-18869.00;;;18.56;nan
28606;BME280;46498;49.968;7.754;2023-08-24T19:06:50;-18869.00;;;18.57;nan
28606;BME280;46498;49.968;7.754;2023-08-24T19:11:53;-18871.00;;;18.63;nan
28606;BME280;46498;49.968;7.754;2023-08-24T19:16:54;-18869.00;;;18.57;nan
28606;BME280;46498;49.968;7.754;2023-08-24T19:21:55;-18867.00;;;18.51;nan
28606;BME280;46498;49.968;7.754;2023-08-24T19:26:56;-18867.00;;;18.49;nan
28606;BME280;46498;49.968;7.754;2023-08-24T19:31:57;-18862.00;;;18.35;nan
28606;BME280;46498;49.968;7.754;2023-08-24T19:36:58;-18863.00;;;18.37;nan
28606;BME280;46498;49.968;7.754;2023-08-24T19:41:59;-18860.00;;;18.29;nan
28606;BME280;46498;49.968;7.754;2023-08-24T19:47:00;-18860.00;;;18.27;nan
28606;BME280;46498;49.968;7.754;2023-08-24T19:52:01;-18858.00;;;18.22;nan
28606;BME280;46498;49.968;7.754;2023-08-24T19:57:04;-18858.00;;;18.21;nan
28606;BME280;46498;49.968;7.754;2023-08-24T20:02:05;-18859.00;;;18.25;nan
28606;BME280;46498;49.968;7.754;2023-08-24T20:07:06;-18859.00;;;18.25;nan
28606;BME280;46498;49.968;7.754;2023-08-24T20:12:07;-18858.00;;;18.22;nan
28606;BME280;46498;49.968;7.754;2023-08-24T20:17:08;-18854.00;;;18.09;nan
28606;BME280;46498;49.968;7.754;2023-08-24T20:22:09;-18852.00;;;18.03;nan
28606;BME280;46498;49.968;7.754;2023-08-24T20:27:10;-18849.00;;;17.95;nan
28606;BME280;46498;49.968;7.754;2023-08-24T20:32:11;-18849.00;;;17.93;nan
28606;BME280;46498;49.968;7.754;2023-08-24T20:37:12;-18846.00;;;17.86;nan
28606;BME280;46498;49.968;7.754;2023-08-24T20:42:18;-18844.00;;;17.80;nan
28606;BME280;46498;49.968;7.754;2023-08-24T20:47:25;-18841.00;;;17.69;nan
28606;BME280;46498;49.968;7.754;2023-08-24T20:52:26;-18841.00;;;17.70;nan
28606;BME280;46498;49.968;7.754;2023-08-24T20:57:27;-18839.00;;;17.61;nan
28606;BME280;46498;49.968;7.754;2023-08-24T21:02:27;-18840.00;;;17.65;nan
28606;BME280;46498;49.968;7.754;2023-08-24T21:07:28;-18839.00;;;17.62;nan
28606;BME280;46498;49.968;7.754;2023-08-24T21:12:31;-18838.00;;;17.60;nan
28606;BME280;46498;49.968;7.754;2023-08-24T21:17:32;-18836.00;;;17.52;nan
28606;BME280;46498;49.968;7.754;2023-08-24T21:22:33;-18838.00;;;17.59;nan
28606;BME280;46498;49.968;7.754;2023-08-24T21:27:33;-18837.00;;;17.55;nan
28606;BME280;46498;49.968;7.754;2023-08-24T21:32:34;-18839.00;;;17.62;nan
28606;BME280;46498;49.968;7.754;2023-08-24T21:37:36;-18836.00;;;17.52;nan
28606;BME280;46498;49.968;7.754;2023-08-24T21:42:36;-18836.00;;;17.54;nan
28606;BME280;46498;49.968;7.754;2023-08-24T21:47:38;-18836.00;;;17.54;nan
28606;BME280;46498;49.968;7.754;2023-08-24T21:52:39;-18838.00;;;17.59;nan
28606;BME280;46498;49.968;7.754;2023-08-24T21:57:40;-18843.00;;;17.74;nan
28606;BME280;46498;49.968;7.754;2023-08-24T22:02:41;-18849.00;;;17.94;nan
28606;BME280;46498;49.968;7.754;2023-08-24T22:07:42;-18854.00;;;18.09;nan
28606;BME280;46498;49.968;7.754;2023-08-24T22:12:43;-18852.00;;;18.04;nan
28606;BME280;46498;49.968;7.754;2023-08-24T22:17:45;-18846.00;;;17.83;nan
28606;BME280;46498;49.968;7.754;2023-08-24T22:22:45;-18852.00;;;18.02;nan
28606;BME280;46498;49.968;7.754;2023-08-24T22:27:47;-18847.00;;;17.88;nan
28606;BME280;46498;49.968;7.754;2023-08-24T22:32:48;-18845.00;;;17.82;nan
28606;BME280;46498;49.968;7.754;2023-08-24T22:37:49;-18847.00;;;17.87;nan
28606;BME280;46498;49.968;7.754;2023-08-24T22:42:50;-18842.00;;;17.71;nan
28606;BME280;46498;49.968;7.754;2023-08-24T22:47:51;-18842.00;;;17.71;nan
28606;BME280;46498;49.968;7.754;2023-08-24T22:52:52;-18844.00;;;17.78;nan
28606;BME280;46498;49.968;7.754;2023-08-24T22:57:54;-18844.00;;;17.78;nan
28606;BME280;46498;49.968;7.754;2023-08-24T23:02:55;-18838.00;;;17.60;nan
28606;BME280;46498;49.968;7.754;2023-08-24T23:07:56;-18832.00;;;17.39;nan
28606;BME280;46498;49.968;7.754;2023-08-24T23:12:57;-18834.00;;;17.46;nan
28606;BME280;46498;49.968;7.754;2023-08-24T23:17:58;-18835.00;;;17.49;nan
28606;BME280;46498;49.968;7.754;2023-08-24T23:22:59;-18839.00;;;17.62;nan
28606;BME280;46498;49.968;7.754;2023-08-24T23:28:00;-18842.00;;;17.73;nan
28606;BME280;46498;49.968;7.754;2023-08-24T23:33:02;-18843.00;;;17.74;nan
28606;BME280;46498;49.968;7.754;2023-08-24T23:38:03;-18842.00;;;17.72;nan
28606;BME280;46498;49.968;7.754;2023-08-24T23:43:04;-18841.00;;;17.70;nan
28606;BME280;46498;49.968;7.754;2023-08-24T23:48:05;-18839.00;;;17.62;nan
28606;BME280;46498;49.968;7.754;2023-08-24T23:53:06;-18840.00;;;17.64;nan
28606;BME280;46498;49.968;7.754;2023-08-24T23:58:07;-18841.00;;;17.70;nan
